Aeroporto :
LOGIN :

Iscrizione | Disclaimer

   EN    FR    IT 

 










Sommario :    VFR   VFR Marginale   IFR   IFR Intensivo   IFR Molto Intensivo
Visibilità : 
Base nubi : 
>= 8 km
>= 3000ft
5 / 8 km
1000 / 3000 ft
1500m / 5 km
500 / 1000 ft
800 / 1500m
200 / 500 ft
< 800m
< 200 ft
Simboli :   Temporali  Nebbia  Neve Forte  Precipitazioni Forti  Vento > 20 kt
SIGMETs :   Varie  Temporali  Ghiacco  Turbolenza  Onda orograficha  Ceneri Vulcaniche






- Altitudine del aeroporto : 82 ft
- Codice IATA : QIE


LFMI - Istres

ULTIMO METAR :
  • 171430Z AUTO 29014KT CAVOK 12/02 Q1005 NOSIG

METARs OBSOLETI :
  • 171400Z AUTO 28011KT 9999 FEW044 BKN050 BKN086 12/03 Q1005 NOSIG
  • 171330Z AUTO 27009KT 230V290 CAVOK 12/04 Q1005 NOSIG
  • 171300Z AUTO 30012KT 9999 FEW019 OVC078 11/03 Q1005 NOSIG
  • 171230Z AUTO 28012KT CAVOK 11/03 Q1005 NOSIG
  • 171200Z AUTO 29012KT CAVOK 11/04 Q1005 NOSIG

TAF TAF LFMI
Valido dal 17 a 15 ore il 18 a 15 ore UTC


171400Z 1715/1815 32010KT 9999 FEW044 BKN050
TEMPO 1800/1809 3000 BR BKN007



MetMap, La meteo Aeronautica in un colpo d'occhio ! - Copyright ORBIFLY Dicembre 2007 - Disclaimer

ORBIFLY MET'MAP TEAM :

Programmazione e sviluppo : Alexandra Zaïnal
Concezione e sviluppo : Baudouin d'Aumeries
Co-Programmazione e sviluppo : Marc-Olivier Méhu
Supporto tecnico e logistico : Manuel Goepfert
Aiuto per la traduzione : Arnaldo La Scala

Contatto : metmap@orbifly.com




FONTI E CREDITI :

   NOAA